Canefield Airport

Fair with slight haze
28oC (82oF)

Fair with slight haze


Winds: South easterly @ 09kts / 17km/h

Humidity: 57%

Barometric Pressure: 1015 mb

Accumulated Rainfall for May: 153.9 mm

Updated: 18:00 local time (22:00 UTC)

Douglas-Charles Airport

Cloudy with adjacent showers
26oC (79oF)

Cloudy with adjacent showers


Winds: East south easterly @ 08kts / 15km/h

Humidity: 79%

Barometric Pressure: 1017 mb

Accumulated Rainfall for May: 85.2 mm

Updated: 19:00 local time (23:00 UTC)

Satellite Imagery

Satellite Imagery
Click image for larger view. (Source: National Hurricane Center).

Aviation Routine Report (METAR)

Douglas-Charles: METAR TDPD 232300Z 12008KT 9999 BKN016 26/22 Q1017=
Canefield: METAR TDCF 232200Z 14009KT 9999 FEW024 28/19 Q1015=